Time;durP1;ratioP1;P1;durP2;ratioP2;P2;SDS_P1;SDS_P2;PMS_P1;PMS_P2;Temp;Humidity;BMP_temperature;BMP_pressure;BME280_temperature;BME280_humidity;BME280_pressure;Samples;Min_cycle;Max_cycle;Signal;HPM_P1;HPM_P2
2022/06/02 00:00:24;;;;;;;5.47;3.15;;;7.10;99.90;;;;;;7316449;32;20590;-60
2022/06/02 00:05:02;;;;;;;4.03;3.12;;;7.20;99.90;;;;;;7321179;32;20217;-60
2022/06/02 00:09:19;;;;;;;7.68;3.40;;;7.00;99.90;;;;;;7317301;32;20704;-60
2022/06/02 00:13:41;;;;;;;4.97;3.33;;;6.90;99.90;;;;;;7322631;32;20134;-60
2022/06/02 00:17:58;;;;;;;5.87;3.10;;;6.90;99.90;;;;;;7323668;32;20263;-60
2022/06/02 00:22:09;;;;;;;5.15;3.70;;;6.90;99.90;;;;;;7320191;32;20629;-60
2022/06/02 00:26:57;;;;;;;5.45;3.53;;;6.90;99.90;;;;;;7323377;32;20578;-60
2022/06/02 00:31:05;;;;;;;5.20;3.97;;;6.80;99.90;;;;;;7306124;32;20312;-60
2022/06/02 00:35:12;;;;;;;6.57;3.62;;;6.80;99.90;;;;;;7325338;32;20483;-60
2022/06/02 00:39:17;;;;;;;4.90;3.90;;;6.70;99.90;;;;;;7318734;32;20246;-59
2022/06/02 00:43:51;;;;;;;4.80;3.80;;;6.70;99.90;;;;;;7314872;32;20134;-59
2022/06/02 00:48:08;;;;;;;7.62;3.78;;;6.70;99.90;;;;;;7314778;32;20190;-59
2022/06/02 00:52:13;;;;;;;;;;;6.60;99.90;;;;;;7321076;32;20125;-60
2022/06/02 01:01:04;;;;;;;4.65;3.67;;;6.60;99.90;;;;;;7318383;32;20203;-59
2022/06/02 01:05:06;;;;;;;7.53;3.67;;;6.50;99.90;;;;;;7316191;32;20522;-60
2022/06/02 01:09:28;;;;;;;5.45;4.20;;;6.50;99.90;;;;;;7312686;32;20107;-59
2022/06/02 01:13:46;;;;;;;7.30;4.97;;;6.50;99.90;;;;;;7312183;32;20138;-59
2022/06/02 01:18:06;;;;;;;7.00;4.37;;;6.40;99.90;;;;;;7316609;32;20179;-59
2022/06/02 01:22:18;;;;;;;6.65;4.60;;;6.40;99.90;;;;;;7319074;32;20122;-60
2022/06/02 01:26:53;;;;;;;5.50;4.32;;;6.30;99.90;;;;;;7320051;32;20627;-60
2022/06/02 01:31:33;;;;;;;5.07;3.85;;;6.30;99.90;;;;;;7321024;32;20201;-60
2022/06/02 01:35:46;;;;;;;12.40;4.20;;;6.20;99.90;;;;;;7318101;32;20516;-60
2022/06/02 01:39:53;;;;;;;4.87;4.30;;;6.20;99.90;;;;;;7320999;32;20522;-60
2022/06/02 01:44:18;;;;;;;5.72;4.75;;;6.20;99.90;;;;;;7321183;32;20622;-59
2022/06/02 01:48:38;;;;;;;9.60;5.68;;;6.20;99.90;;;;;;7319946;32;20238;-59
2022/06/02 01:52:49;;;;;;;7.22;4.85;;;6.10;99.90;;;;;;7323261;32;20170;-60
2022/06/02 01:57:12;;;;;;;12.60;4.72;;;6.10;99.90;;;;;;7317325;32;20099;-59
2022/06/02 02:01:40;;;;;;;7.95;4.53;;;6.10;99.90;;;;;;7318322;32;20108;-59
2022/06/02 02:06:18;;;;;;;8.32;5.10;;;6.00;99.90;;;;;;7316776;32;20524;-60
2022/06/02 02:10:38;;;;;;;;;;;6.00;99.90;;;;;;7321447;32;20209;-59
2022/06/02 02:15:26;;;;;;;12.45;6.18;;;6.00;99.90;;;;;;7316572;32;20010;-60
2022/06/02 02:19:38;;;;;;;7.90;5.23;;;6.00;99.90;;;;;;7310913;32;20305;-59
2022/06/02 02:23:56;;;;;;;10.43;5.43;;;5.90;99.90;;;;;;7310443;32;20128;-59
2022/06/02 02:28:02;;;;;;;;;;;5.80;99.90;;;;;;7326710;32;20098;-60
2022/06/02 02:32:20;;;;;;;9.70;5.18;;;5.80;99.90;;;;;;7329602;32;20594;-59
2022/06/02 02:37:01;;;;;;;10.07;5.47;;;5.70;99.90;;;;;;7323335;32;20977;-59
2022/06/02 02:41:06;;;;;;;6.93;5.43;;;5.70;99.90;;;;;;7319907;32;20103;-59
2022/06/02 02:45:39;;;;;;;8.05;5.43;;;5.70;99.90;;;;;;7327618;32;20526;-60
2022/06/02 02:49:54;;;;;;;10.88;6.30;;;5.70;99.90;;;;;;7319639;32;20520;-59
2022/06/02 02:54:14;;;;;;;11.30;7.35;;;5.60;99.90;;;;;;7324986;32;20443;-59
2022/06/02 02:58:40;;;;;;;9.00;6.93;;;5.70;99.90;;;;;;7322354;32;20345;-59
2022/06/02 03:03:18;;;;;;;7.72;6.00;;;5.60;99.90;;;;;;7323510;32;20116;-59
2022/06/02 03:07:20;;;;;;;8.85;5.75;;;5.60;99.90;;;;;;7317206;32;20295;-59
2022/06/02 03:11:46;;;;;;;7.37;6.07;;;5.60;99.90;;;;;;7325109;32;20564;-59
2022/06/02 03:16:10;;;;;;;10.27;6.40;;;5.60;99.90;;;;;;7320280;32;20735;-59
2022/06/02 03:20:34;;;;;;;8.15;6.47;;;5.60;99.90;;;;;;7319284;32;20127;-59
2022/06/02 03:24:52;;;;;;;8.90;6.10;;;5.60;99.90;;;;;;7324387;32;20147;-59
2022/06/02 03:29:22;;;;;;;8.45;6.25;;;5.50;99.90;;;;;;7330586;32;20121;-60
2022/06/02 03:33:30;;;;;;;12.10;6.95;;;5.50;99.90;;;;;;7303439;32;20383;-59
2022/06/02 03:37:48;;;;;;;8.57;6.37;;;5.50;99.90;;;;;;7326760;32;20104;-60
2022/06/02 03:42:15;;;;;;;10.60;7.75;;;5.40;99.90;;;;;;7319550;32;20100;-59
2022/06/02 03:46:41;;;;;;;9.88;7.25;;;5.50;99.90;;;;;;7320440;32;20719;-59
2022/06/02 03:51:08;;;;;;;9.30;7.18;;;5.50;99.90;;;;;;7327504;32;20118;-60
2022/06/02 03:55:25;;;;;;;9.60;7.78;;;5.40;99.90;;;;;;7323385;32;20757;-59
2022/06/02 03:59:38;;;;;;;9.83;7.40;;;5.50;99.90;;;;;;7317009;32;20293;-60
2022/06/02 04:04:05;;;;;;;9.25;6.28;;;5.50;99.90;;;;;;7319071;32;20341;-60
2022/06/02 04:08:49;;;;;;;10.93;7.80;;;5.60;99.90;;;;;;7326961;32;20103;-60
2022/06/02 04:13:37;;;;;;;11.23;8.57;;;5.70;99.90;;;;;;7287469;32;20639;-61
2022/06/02 04:17:53;;;;;;;12.68;8.45;;;5.80;99.90;;;;;;7256259;32;20464;-60
2022/06/02 04:22:17;;;;;;;11.80;9.07;;;5.90;99.90;;;;;;7316009;32;20210;-60
2022/06/02 04:26:35;;;;;;;11.18;9.20;;;6.00;99.90;;;;;;7315465;32;20207;-60
2022/06/02 04:31:07;;;;;;;10.38;7.60;;;6.20;99.90;;;;;;7317319;32;20119;-60
2022/06/02 04:35:43;;;;;;;12.48;8.52;;;6.30;99.90;;;;;;7315250;32;20345;-60
2022/06/02 04:40:12;;;;;;;10.55;7.72;;;6.50;99.90;;;;;;7314609;32;20122;-60
2022/06/02 04:44:31;;;;;;;10.93;7.78;;;6.70;99.90;;;;;;7317379;32;20638;-61
2022/06/02 04:48:45;;;;;;;13.32;7.97;;;7.00;99.90;;;;;;7322362;32;20236;-64
2022/06/02 04:53:11;;;;;;;11.40;7.80;;;7.40;99.90;;;;;;7322784;32;20108;-64
2022/06/02 04:57:21;;;;;;;10.68;7.60;;;7.70;99.90;;;;;;7310733;32;20173;-63
2022/06/02 05:01:53;;;;;;;12.00;9.38;;;8.30;99.90;;;;;;7309763;32;20219;-62
2022/06/02 05:06:16;;;;;;;15.98;10.48;;;8.80;99.90;;;;;;7316254;32;20658;-62
2022/06/02 05:10:41;;;;;;;15.52;9.23;;;9.20;99.90;;;;;;7314927;32;20142;-62
2022/06/02 05:15:25;;;;;;;14.63;10.77;;;9.70;99.90;;;;;;7313902;32;20187;-62
2022/06/02 05:20:01;;;;;;;11.95;10.32;;;10.40;99.90;;;;;;7301227;32;20190;-62
2022/06/02 05:24:09;;;;;;;14.75;10.55;;;11.10;99.90;;;;;;7313966;32;20099;-63
2022/06/02 05:28:16;;;;;;;10.98;9.82;;;11.70;99.90;;;;;;7315006;32;20107;-61
2022/06/02 05:32:31;;;;;;;;;;;12.10;99.90;;;;;;7314666;32;20571;-62
2022/06/02 05:36:42;;;;;;;13.57;11.80;;;12.80;99.90;;;;;;7320740;32;20013;-63
2022/06/02 05:40:55;;;;;;;19.08;16.75;;;13.10;99.90;;;;;;7315722;32;20531;-62
2022/06/02 05:45:09;;;;;;;22.00;17.73;;;13.50;99.90;;;;;;7311622;32;20243;-65
2022/06/02 05:49:23;;;;;;;19.02;16.67;;;13.60;99.90;;;;;;7325894;32;20108;-65
2022/06/02 05:53:54;;;;;;;20.27;18.10;;;14.30;99.90;;;;;;7317608;32;20246;-64
2022/06/02 05:58:24;;;;;;;22.30;17.95;;;14.40;99.90;;;;;;7313488;32;20195;-64
2022/06/02 06:02:34;;;;;;;19.62;16.67;;;14.80;99.90;;;;;;7316777;32;20206;-64
2022/06/02 06:06:48;;;;;;;18.75;16.42;;;14.90;99.90;;;;;;7321804;32;20103;-64
2022/06/02 06:11:07;;;;;;;19.30;16.70;;;15.30;99.90;;;;;;7319344;32;20230;-65
2022/06/02 06:15:31;;;;;;;19.75;16.83;;;15.60;99.90;;;;;;7314352;32;20100;-64
2022/06/02 06:20:12;;;;;;;17.45;15.65;;;15.70;99.90;;;;;;7319609;32;20190;-66
2022/06/02 06:24:50;;;;;;;18.35;16.45;;;16.60;99.90;;;;;;7309234;32;20725;-65
2022/06/02 06:29:06;;;;;;;16.77;14.90;;;17.10;99.90;;;;;;7322614;32;20126;-66
2022/06/02 06:33:46;;;;;;;19.45;16.37;;;17.60;99.90;;;;;;7318820;32;20213;-65
2022/06/02 06:38:05;;;;;;;17.67;15.63;;;18.30;99.90;;;;;;7317022;32;20130;-64
2022/06/02 06:42:10;;;;;;;16.12;14.52;;;18.50;99.90;;;;;;7315196;32;20124;-64
2022/06/02 06:46:37;;;;;;;16.08;14.52;;;18.80;99.90;;;;;;7312233;32;20195;-63
2022/06/02 06:51:03;;;;;;;17.05;15.30;;;19.00;99.90;;;;;;7316149;32;20119;-65
2022/06/02 06:55:38;;;;;;;16.65;13.57;;;18.90;99.90;;;;;;7324002;32;20125;-64
2022/06/02 06:59:55;;;;;;;14.73;12.52;;;18.80;99.90;;;;;;7298585;32;20773;-66
2022/06/02 07:04:32;;;;;;;16.92;14.75;;;19.20;99.90;;;;;;7317750;32;20162;-66
2022/06/02 07:08:43;;;;;;;14.60;13.02;;;19.10;99.90;;;;;;7315277;32;20699;-66
2022/06/02 07:12:55;;;;;;;14.60;13.02;;;19.20;99.90;;;;;;7325076;32;20096;-65
2022/06/02 07:17:04;;;;;;;15.52;13.55;;;19.30;99.90;;;;;;7328153;32;20126;-66
2022/06/02 07:21:19;;;;;;;17.83;14.07;;;18.80;99.90;;;;;;7317435;32;20198;-66
2022/06/02 07:25:34;;;;;;;15.95;13.75;;;18.40;99.90;;;;;;7325613;32;20439;-65
2022/06/02 07:29:55;;;;;;;14.80;12.98;;;17.50;99.90;;;;;;7330126;32;20206;-65
2022/06/02 07:34:18;;;;;;;12.85;10.23;;;17.20;99.90;;;;;;7324213;32;20178;-65
2022/06/02 07:38:30;;;;;;;13.32;9.95;;;17.20;99.90;;;;;;7326553;32;20099;-66
2022/06/02 07:42:45;;;;;;;10.52;9.02;;;17.20;99.90;;;;;;7318346;32;20241;-63
2022/06/02 07:47:15;;;;;;;9.50;8.50;;;17.10;99.90;;;;;;7315785;32;20290;-66
2022/06/02 07:51:46;;;;;;;8.75;7.95;;;16.80;99.90;;;;;;7315780;32;21759;-66
2022/06/02 07:56:37;;;;;;;9.45;8.35;;;16.70;99.90;;;;;;7326406;32;20125;-65
2022/06/02 08:01:11;;;;;;;9.75;7.90;;;16.80;99.90;;;;;;7307847;32;20253;-66
2022/06/02 08:05:38;;;;;;;9.48;7.97;;;16.20;99.90;;;;;;7313557;32;20199;-66
2022/06/02 08:09:52;;;;;;;9.13;8.15;;;15.10;99.90;;;;;;7325235;32;20103;-66
2022/06/02 08:14:03;;;;;;;10.20;8.45;;;15.10;99.90;;;;;;7329521;32;20293;-68
2022/06/02 08:18:10;;;;;;;9.82;7.60;;;16.10;99.90;;;;;;7311855;32;20199;-65
2022/06/02 08:22:21;;;;;;;9.98;8.05;;;17.30;99.90;;;;;;7322778;32;20096;-66
2022/06/02 08:26:38;;;;;;;9.10;6.57;;;17.90;99.90;;;;;;7323794;32;20505;-65
2022/06/02 08:30:44;;;;;;;8.40;6.62;;;18.60;99.90;;;;;;7318983;32;20198;-66
2022/06/02 08:35:13;;;;;;;8.43;6.05;;;19.50;99.90;;;;;;7309362;32;20641;-65
2022/06/02 08:39:44;;;;;;;8.48;5.78;;;19.90;99.90;;;;;;7311003;32;20434;-65
2022/06/02 08:44:07;;;;;;;5.90;5.25;;;20.50;99.90;;;;;;7327260;32;20178;-65
2022/06/02 08:48:37;;;;;;;6.82;6.03;;;21.00;99.90;;;;;;7321629;32;20092;-66
2022/06/02 08:53:00;;;;;;;7.97;6.10;;;21.10;99.90;;;;;;7322009;32;20201;-67
2022/06/02 08:57:32;;;;;;;9.20;5.32;;;19.40;99.90;;;;;;7308765;32;20531;-66
2022/06/02 09:01:52;;;;;;;8.25;5.22;;;19.90;99.90;;;;;;7321533;32;20197;-67
2022/06/02 09:06:50;;;;;;;6.57;4.37;;;20.60;99.90;;;;;;7321998;32;20171;-67
2022/06/02 09:11:26;;;;;;;4.47;3.62;;;20.80;99.90;;;;;;7318470;32;20095;-66
2022/06/02 09:15:40;;;;;;;6.15;4.10;;;19.90;99.90;;;;;;7314792;32;20233;-66
2022/06/02 09:19:48;;;;;;;4.90;3.33;;;18.80;99.90;;;;;;7314762;32;20485;-66
2022/06/02 09:23:55;;;;;;;4.93;4.37;;;18.20;99.90;;;;;;7322834;32;20099;-66
2022/06/02 09:28:23;;;;;;;5.05;3.87;;;18.30;99.90;;;;;;7317415;32;20126;-67
2022/06/02 09:32:52;;;;;;;4.35;3.35;;;19.70;99.90;;;;;;7313448;32;20191;-66
2022/06/02 09:37:28;;;;;;;4.47;3.25;;;21.00;99.90;;;;;;7304783;32;20146;-66
2022/06/02 09:41:41;;;;;;;4.80;3.28;;;21.50;99.90;;;;;;7318636;32;20123;-67
2022/06/02 09:45:58;;;;;;;4.15;2.90;;;21.40;96.50;;;;;;7315469;32;20118;-65
2022/06/02 09:50:47;;;;;;;3.08;2.30;;;22.00;99.90;;;;;;7333516;32;20440;-66
2022/06/02 09:55:09;;;;;;;2.70;2.03;;;22.60;99.60;;;;;;7321143;32;20529;-66
2022/06/02 09:59:34;;;;;;;4.82;2.92;;;22.90;92.90;;;;;;7314622;32;20425;-68
2022/06/02 10:03:44;;;;;;;4.28;2.75;;;22.60;92.10;;;;;;7321816;32;20560;-68
2022/06/02 10:08:09;;;;;;;2.85;2.20;;;22.00;92.90;;;;;;7324336;32;20388;-69
2022/06/02 10:17:28;;;;;;;6.55;3.10;;;21.10;91.60;;;;;;7310632;32;20175;-69
2022/06/02 10:21:37;;;;;;;5.00;2.62;;;19.00;95.80;;;;;;7317834;32;20287;-69
2022/06/02 10:26:10;;;;;;;3.00;2.20;;;18.60;99.60;;;;;;7311775;32;20580;-67
2022/06/02 10:30:59;;;;;;;2.97;2.20;;;18.30;99.90;;;;;;7316388;32;20120;-67
2022/06/02 10:35:31;;;;;;;3.20;2.20;;;18.20;99.90;;;;;;7295649;32;20218;-67
2022/06/02 10:39:56;;;;;;;3.05;2.42;;;17.70;99.90;;;;;;7311517;32;20122;-67
2022/06/02 10:44:10;;;;;;;4.15;2.03;;;18.70;99.90;;;;;;7314481;32;20122;-67
2022/06/02 10:48:34;;;;;;;3.08;2.20;;;19.80;99.90;;;;;;7326509;32;20112;-66
2022/06/02 10:53:13;;;;;;;4.55;2.35;;;19.50;99.90;;;;;;7325972;32;20161;-66
2022/06/02 10:57:37;;;;;;;4.87;2.60;;;18.20;99.90;;;;;;7319726;32;20507;-66
2022/06/02 11:02:15;;;;;;;2.58;2.20;;;17.70;99.90;;;;;;7327654;32;20131;-65
2022/06/02 11:06:57;;;;;;;3.03;2.37;;;17.30;99.90;;;;;;7327409;32;20096;-65
2022/06/02 11:11:36;;;;;;;3.42;1.92;;;17.20;99.90;;;;;;7314773;32;20664;-65
2022/06/02 11:15:47;;;;;;;3.87;1.90;;;17.30;99.90;;;;;;7314620;32;20603;-65
2022/06/02 11:20:27;;;;;;;2.03;1.60;;;17.80;99.90;;;;;;7320552;32;20180;-66
2022/06/02 11:24:31;;;;;;;2.20;1.42;;;17.90;99.90;;;;;;7312424;32;20176;-65
2022/06/02 11:29:03;;;;;;;3.55;1.80;;;18.00;99.90;;;;;;7325201;32;20198;-65
2022/06/02 11:33:19;;;;;;;2.60;2.30;;;18.60;99.90;;;;;;7317790;32;20294;-65
2022/06/02 11:37:49;;;;;;;3.65;1.95;;;17.90;99.90;;;;;;7320647;32;20197;-65
2022/06/02 11:42:51;;;;;;;3.78;1.92;;;17.50;99.90;;;;;;7321091;32;20690;-66
2022/06/02 11:47:14;;;;;;;2.10;1.60;;;17.80;99.90;;;;;;7320262;32;20124;-66
2022/06/02 11:51:49;;;;;;;2.17;1.50;;;18.30;99.90;;;;;;7325955;32;20187;-65
2022/06/02 11:56:08;;;;;;;3.40;1.70;;;18.40;97.40;;;;;;7323089;32;20182;-65
2022/06/02 12:00:35;;;;;;;2.10;1.35;;;19.20;99.90;;;;;;7321856;32;20095;-65
2022/06/02 12:05:00;;;;;;;1.55;1.45;;;19.30;94.50;;;;;;7313522;32;20220;-59
2022/06/02 12:09:26;;;;;;;1.77;1.40;;;19.60;99.90;;;;;;7316017;32;20179;-59
2022/06/02 12:13:46;;;;;;;5.85;1.90;;;19.80;98.80;;;;;;7310084;32;20182;-59
2022/06/02 12:18:07;;;;;;;2.45;1.40;;;20.00;94.50;;;;;;7322996;32;20486;-60
2022/06/02 12:22:46;;;;;;;5.53;1.40;;;20.20;94.10;;;;;;7325084;32;20630;-59
2022/06/02 12:27:24;;;;;;;2.35;1.48;;;20.40;94.80;;;;;;7322586;32;20096;-59
2022/06/02 12:31:40;;;;;;;16.70;2.28;;;20.60;93.30;;;;;;7315153;32;20210;-59
2022/06/02 12:35:57;;;;;;;1.73;1.20;;;20.10;90.40;;;;;;7321339;32;20214;-59
2022/06/02 12:40:02;;;;;;;2.45;1.25;;;19.80;90.50;;;;;;7318035;32;20129;-66
2022/06/02 12:44:22;;;;;;;2.08;1.42;;;19.50;88.80;;;;;;7324220;32;20107;-65
2022/06/02 12:48:45;;;;;;;1.58;1.20;;;19.50;92.80;;;;;;7322792;32;20163;-65
2022/06/02 12:53:13;;;;;;;2.72;1.10;;;19.60;89.80;;;;;;7319682;32;20695;-65
2022/06/02 12:57:53;;;;;;;1.17;1.08;;;19.60;90.50;;;;;;7318016;32;20126;-65
2022/06/02 13:02:07;;;;;;;2.65;1.00;;;19.70;91.40;;;;;;7308581;32;20127;-66
2022/06/02 13:06:54;;;;;;;1.62;1.20;;;20.00;87.30;;;;;;7325098;32;20156;-65
2022/06/02 13:11:15;;;;;;;1.75;1.00;;;19.50;89.70;;;;;;7302801;32;20522;-65
2022/06/02 13:15:41;;;;;;;2.95;1.55;;;19.70;91.70;;;;;;7325683;32;20129;-67
2022/06/02 13:20:20;;;;;;;1.77;0.95;;;19.60;83.50;;;;;;7319807;32;20554;-65
2022/06/02 13:24:43;;;;;;;2.10;1.40;;;19.60;86.20;;;;;;7314800;32;20126;-65
2022/06/02 13:29:03;;;;;;;3.10;1.20;;;19.10;85.90;;;;;;7329393;32;21005;-66
2022/06/02 13:33:29;;;;;;;4.60;2.03;;;19.50;92.00;;;;;;7326987;32;20587;-65
2022/06/02 13:37:52;;;;;;;2.28;1.60;;;19.90;90.40;;;;;;7327958;32;20110;-65
2022/06/02 13:42:18;;;;;;;2.22;1.40;;;19.90;86.60;;;;;;7324356;32;20107;-67
2022/06/02 13:46:28;;;;;;;2.15;1.35;;;20.00;90.40;;;;;;7315705;32;20512;-66
2022/06/02 13:51:11;;;;;;;1.52;1.37;;;19.90;88.60;;;;;;7318690;32;20347;-65
2022/06/02 14:00:09;;;;;;;2.30;1.30;;;19.80;83.60;;;;;;7327336;32;20155;-65
2022/06/02 14:04:37;;;;;;;1.42;1.27;;;19.60;88.30;;;;;;7332337;32;20605;-66
2022/06/02 14:09:03;;;;;;;1.10;1.00;;;19.70;90.00;;;;;;7323750;32;20213;-65
2022/06/02 14:13:44;;;;;;;1.52;1.25;;;20.10;87.10;;;;;;7330785;32;20448;-65
2022/06/02 14:18:07;;;;;;;1.45;1.00;;;20.10;85.80;;;;;;7318366;32;20171;-67
2022/06/02 14:22:37;;;;;;;2.20;1.05;;;19.70;89.00;;;;;;7335315;32;20193;-66
2022/06/02 14:26:51;;;;;;;1.85;1.10;;;20.00;86.70;;;;;;7328317;32;20429;-66
2022/06/02 14:31:03;;;;;;;2.12;0.90;;;20.20;84.80;;;;;;7323579;32;20195;-67
2022/06/02 14:35:15;;;;;;;3.67;1.80;;;20.50;82.70;;;;;;7332221;32;20481;-65
2022/06/02 14:39:23;;;;;;;1.65;1.10;;;20.70;84.10;;;;;;7322816;32;20564;-68
2022/06/02 14:43:40;;;;;;;2.47;0.93;;;20.60;83.50;;;;;;7323756;32;20187;-67
2022/06/02 14:48:12;;;;;;;2.00;1.25;;;20.50;80.30;;;;;;7333774;32;20112;-67
2022/06/02 14:52:39;;;;;;;2.00;1.73;;;20.60;83.50;;;;;;7312101;32;20183;-65
2022/06/02 14:57:03;;;;;;;1.95;1.20;;;20.30;79.30;;;;;;7322492;32;20111;-66
2022/06/02 15:01:19;;;;;;;1.10;1.00;;;20.10;80.00;;;;;;7322623;32;20133;-67
2022/06/02 15:05:41;;;;;;;5.63;4.97;;;20.20;79.80;;;;;;7326248;32;20115;-65
2022/06/02 15:09:59;;;;;;;2.33;1.23;;;20.60;79.20;;;;;;7317007;32;20300;-67
2022/06/02 15:14:33;;;;;;;2.95;1.10;;;20.40;79.10;;;;;;7325859;32;20119;-67
2022/06/02 15:18:50;;;;;;;2.45;1.33;;;20.20;79.20;;;;;;7295650;32;20134;-67
2022/06/02 15:23:31;;;;;;;4.40;2.00;;;20.10;78.90;;;;;;7314198;32;20262;-67
2022/06/02 15:27:38;;;;;;;1.55;1.20;;;20.00;80.30;;;;;;7319289;32;20214;-66
2022/06/02 15:31:58;;;;;;;;;;;19.90;78.50;;;;;;7317103;32;20715;-60
2022/06/02 15:36:20;;;;;;;1.85;1.10;;;19.80;79.40;;;;;;7325666;32;20058;-60
2022/06/02 15:40:53;;;;;;;1.80;1.05;;;20.10;78.10;;;;;;7322849;32;20111;-61
2022/06/02 15:45:19;;;;;;;3.72;2.47;;;20.10;80.70;;;;;;7321737;32;20246;-66
2022/06/02 15:50:00;;;;;;;2.03;1.10;;;20.30;81.30;;;;;;7327220;32;20218;-66
2022/06/02 15:54:21;;;;;;;2.80;0.85;;;19.90;79.00;;;;;;7316648;32;20116;-66
2022/06/02 15:58:33;;;;;;;2.47;0.90;;;19.70;80.20;;;;;;7314653;32;20133;-65
2022/06/02 16:02:54;;;;;;;3.05;1.35;;;19.70;81.80;;;;;;7319809;32;20111;-67
2022/06/02 16:07:19;;;;;;;1.80;1.20;;;19.40;81.60;;;;;;7329408;32;20107;-65
2022/06/02 16:12:05;;;;;;;2.05;1.12;;;19.50;83.90;;;;;;7303713;32;20725;-67
2022/06/02 16:16:29;;;;;;;1.52;1.10;;;19.60;82.70;;;;;;7334153;32;20730;-67
2022/06/02 16:21:09;;;;;;;1.50;1.10;;;19.60;80.90;;;;;;7316355;32;20482;-65
2022/06/02 16:25:25;;;;;;;16.98;14.73;;;19.50;81.30;;;;;;7323953;32;20135;-65
2022/06/02 16:29:49;;;;;;;1.87;1.20;;;19.30;79.80;;;;;;7324486;32;20346;-65
2022/06/02 16:34:16;;;;;;;2.80;1.30;;;19.50;81.40;;;;;;7330770;32;20130;-66
2022/06/02 16:38:30;;;;;;;1.35;1.25;;;19.20;80.70;;;;;;7315922;32;20718;-65
2022/06/02 16:42:43;;;;;;;2.47;1.50;;;19.20;82.30;;;;;;7320313;32;20279;-66
2022/06/02 16:47:50;;;;;;;2.03;1.67;;;19.20;83.40;;;;;;7310084;32;20157;-66
2022/06/02 16:51:57;;;;;;;2.20;1.75;;;19.20;82.00;;;;;;7319701;32;20133;-66
2022/06/02 16:56:00;;;;;;;3.67;2.15;;;19.10;83.00;;;;;;7322464;32;20540;-65
2022/06/02 17:00:19;;;;;;;2.53;1.92;;;19.10;83.00;;;;;;7318658;32;20207;-66
2022/06/02 17:04:30;;;;;;;2.42;2.15;;;19.10;82.30;;;;;;7333970;32;20091;-65
2022/06/02 17:08:51;;;;;;;2.80;1.87;;;19.00;81.80;;;;;;7320138;32;20321;-65
2022/06/02 17:13:11;;;;;;;2.75;2.10;;;18.90;81.50;;;;;;7315355;32;20549;-66
2022/06/02 17:17:34;;;;;;;3.92;3.00;;;19.00;82.40;;;;;;7324094;32;20104;-65
2022/06/02 17:22:19;;;;;;;6.28;1.80;;;18.80;83.40;;;;;;7315767;32;20514;-64
2022/06/02 17:26:47;;;;;;;3.55;2.10;;;18.80;84.50;;;;;;7323362;32;20126;-65
2022/06/02 17:31:14;;;;;;;3.80;1.95;;;18.70;83.30;;;;;;7316553;32;20134;-65
2022/06/02 17:35:31;;;;;;;3.07;1.87;;;18.80;84.10;;;;;;7328455;32;20130;-66
2022/06/02 17:39:54;;;;;;;3.50;2.60;;;18.70;83.40;;;;;;7318888;32;20217;-64
2022/06/02 17:44:08;;;;;;;3.20;1.60;;;18.60;84.70;;;;;;7324122;32;20528;-66
2022/06/02 17:48:30;;;;;;;3.95;1.80;;;18.70;83.30;;;;;;7322401;32;20195;-64
2022/06/02 17:52:40;;;;;;;1.90;1.70;;;18.60;85.30;;;;;;7318563;32;20104;-64
2022/06/02 17:57:20;;;;;;;1.58;1.40;;;18.50;83.70;;;;;;7316195;32;20203;-67
2022/06/02 18:02:10;;;;;;;2.15;1.50;;;18.50;83.60;;;;;;7317393;32;20801;-66
2022/06/02 18:06:33;;;;;;;2.22;1.52;;;18.30;84.40;;;;;;7331878;32;20248;-65
2022/06/02 18:10:46;;;;;;;8.85;7.22;;;18.30;83.90;;;;;;7318046;32;20103;-64
2022/06/02 18:14:53;;;;;;;2.92;1.35;;;18.30;83.60;;;;;;7309848;32;21636;-67
2022/06/02 18:19:07;;;;;;;;;;;18.20;84.60;;;;;;7315141;32;20512;-65
2022/06/02 18:23:37;;;;;;;1.77;1.20;;;18.20;84.70;;;;;;7317519;32;20021;-66
2022/06/02 18:27:54;;;;;;;1.23;0.90;;;18.00;87.20;;;;;;7321207;32;20431;-68
2022/06/02 18:32:34;;;;;;;1.15;0.90;;;18.00;89.20;;;;;;7320192;32;20253;-66
2022/06/02 18:36:58;;;;;;;6.28;1.30;;;17.80;89.60;;;;;;7320344;32;20405;-67
2022/06/02 18:41:24;;;;;;;2.35;0.90;;;17.70;90.00;;;;;;7322447;32;20118;-68
2022/06/02 18:46:03;;;;;;;3.90;1.00;;;17.70;90.50;;;;;;7318875;32;20170;-67
2022/06/02 18:50:09;;;;;;;1.33;0.93;;;17.50;91.70;;;;;;7321878;32;20126;-66
2022/06/02 18:54:25;;;;;;;1.37;0.88;;;17.30;91.70;;;;;;7326687;32;20103;-67
2022/06/02 18:58:45;;;;;;;1.87;0.80;;;17.10;91.70;;;;;;7317503;32;20096;-67
2022/06/02 19:03:05;;;;;;;1.58;0.75;;;17.00;92.40;;;;;;7318243;32;20134;-67
2022/06/02 19:17:13;;;;;;;4.03;0.90;;;16.70;92.70;;;;;;7310628;32;20606;-67
2022/06/02 19:21:26;;;;;;;1.67;0.77;;;16.60;93.80;;;;;;7319004;32;20121;-66
2022/06/02 19:25:45;;;;;;;1.52;0.77;;;16.40;94.90;;;;;;7319951;32;20245;-66
2022/06/02 19:30:19;;;;;;;2.10;0.80;;;16.30;95.30;;;;;;7307771;32;20099;-66
2022/06/02 19:34:28;;;;;;;1.17;0.70;;;16.20;96.20;;;;;;7326293;32;20100;-68
2022/06/02 19:38:48;;;;;;;2.30;0.70;;;16.00;96.30;;;;;;7334210;32;20378;-67
2022/06/02 19:43:29;;;;;;;2.80;0.70;;;15.90;97.10;;;;;;7323968;32;20103;-68
2022/06/02 19:47:39;;;;;;;1.30;0.88;;;15.80;98.30;;;;;;7290503;32;20918;-68
2022/06/02 19:51:47;;;;;;;3.62;2.35;;;15.70;98.20;;;;;;7321803;32;20149;-62
2022/06/02 19:55:54;;;;;;;2.80;1.10;;;15.50;99.90;;;;;;7325536;32;20203;-63
2022/06/02 20:00:26;;;;;;;2.83;1.00;;;15.50;99.90;;;;;;7321733;32;20132;-64
2022/06/02 20:04:40;;;;;;;2.67;0.90;;;15.30;99.90;;;;;;7317159;32;20345;-66
2022/06/02 20:08:49;;;;;;;2.35;1.20;;;15.20;99.90;;;;;;7331525;32;20133;-66
2022/06/02 20:13:18;;;;;;;1.33;0.80;;;14.90;99.90;;;;;;7322993;32;20119;-65
2022/06/02 20:17:31;;;;;;;3.90;1.10;;;14.90;99.90;;;;;;7321174;32;20138;-66
2022/06/02 20:21:44;;;;;;;1.70;0.95;;;14.80;99.90;;;;;;7318733;32;20222;-67
2022/06/02 20:26:08;;;;;;;2.62;0.85;;;14.60;99.90;;;;;;7325264;32;20133;-66
2022/06/02 20:30:33;;;;;;;2.58;1.20;;;14.70;99.90;;;;;;7319044;32;20178;-66
2022/06/02 20:34:49;;;;;;;1.70;1.00;;;14.80;99.90;;;;;;7317038;32;20258;-66
2022/06/02 20:39:14;;;;;;;3.55;0.90;;;14.70;99.90;;;;;;7327088;32;20107;-60
2022/06/02 20:43:32;;;;;;;1.92;1.08;;;14.70;99.90;;;;;;7317755;32;20126;-62
2022/06/02 20:47:59;;;;;;;2.65;1.27;;;14.60;99.90;;;;;;7320035;32;20185;-63
2022/06/02 20:52:18;;;;;;;3.00;1.10;;;14.60;99.90;;;;;;7325692;32;20157;-64
2022/06/02 20:56:34;;;;;;;2.08;1.35;;;14.60;99.90;;;;;;7320435;32;20134;-63
2022/06/02 21:00:58;;;;;;;4.30;1.30;;;14.50;99.90;;;;;;7316345;32;20111;-63
2022/06/02 21:05:07;;;;;;;3.40;1.50;;;14.50;99.90;;;;;;7334636;32;20219;-63
2022/06/02 21:09:15;;;;;;;2.62;1.73;;;14.60;99.90;;;;;;7318316;32;20141;-63
2022/06/02 21:13:37;;;;;;;3.30;1.62;;;14.50;99.90;;;;;;7326744;32;20129;-63
2022/06/02 21:18:01;;;;;;;2.35;1.70;;;14.50;99.90;;;;;;7321001;32;20130;-63
2022/06/02 21:22:30;;;;;;;4.35;2.05;;;14.50;99.90;;;;;;7326976;32;20112;-65
2022/06/02 21:26:51;;;;;;;3.62;1.80;;;14.40;99.90;;;;;;7323444;32;20213;-62
2022/06/02 21:30:54;;;;;;;3.03;2.00;;;14.30;99.90;;;;;;7326779;32;20108;-61
2022/06/02 21:35:00;;;;;;;7.37;2.20;;;14.30;99.90;;;;;;7323470;32;20570;-62
2022/06/02 21:39:05;;;;;;;2.47;1.73;;;14.30;99.90;;;;;;7320130;32;20115;-61
2022/06/02 21:43:21;;;;;;;3.33;2.20;;;14.20;99.90;;;;;;7306228;32;20566;-63
2022/06/02 21:48:02;;;;;;;2.35;1.87;;;14.20;99.90;;;;;;7319436;32;20567;-62
2022/06/02 21:52:23;;;;;;;2.85;1.83;;;14.10;99.90;;;;;;7292362;32;20245;-61
2022/06/02 21:56:49;;;;;;;3.90;1.95;;;14.20;99.90;;;;;;7336922;32;20720;-64
2022/06/02 22:01:12;;;;;;;3.62;2.00;;;14.20;99.90;;;;;;7329609;32;20127;-62
2022/06/02 22:05:20;;;;;;;4.75;1.95;;;14.10;99.90;;;;;;7315049;32;20198;-62
2022/06/02 22:09:30;;;;;;;2.45;1.70;;;14.10;99.90;;;;;;7328049;32;20496;-61
2022/06/02 22:13:57;;;;;;;4.35;1.80;;;14.00;99.90;;;;;;7320633;32;20130;-61
2022/06/02 22:18:35;;;;;;;3.53;1.75;;;14.00;99.90;;;;;;7318865;32;20489;-61
2022/06/02 22:22:44;;;;;;;4.35;1.80;;;13.90;99.90;;;;;;7312064;32;20227;-62
2022/06/02 22:27:19;;;;;;;2.95;1.67;;;14.00;99.90;;;;;;7319329;32;20471;-61
2022/06/02 22:31:24;;;;;;;2.33;1.70;;;13.90;99.90;;;;;;7317134;32;20116;-61
2022/06/02 22:35:31;;;;;;;2.40;1.70;;;13.90;99.90;;;;;;7319134;32;20111;-63
2022/06/02 22:40:10;;;;;;;2.25;1.52;;;13.80;99.90;;;;;;7323949;32;20198;-61
2022/06/02 22:44:27;;;;;;;4.43;1.60;;;13.80;99.90;;;;;;7321666;32;20508;-62
2022/06/02 22:49:00;;;;;;;1.95;1.58;;;13.80;99.90;;;;;;7325305;32;20305;-62
2022/06/02 22:53:19;;;;;;;5.00;1.52;;;13.80;99.90;;;;;;7322924;32;20138;-62
2022/06/02 22:57:30;;;;;;;2.12;1.40;;;13.70;99.90;;;;;;7329477;32;20149;-62
2022/06/02 23:01:35;;;;;;;5.60;2.58;;;13.70;99.90;;;;;;7327650;32;20178;-62
2022/06/02 23:06:09;;;;;;;4.45;1.70;;;13.60;99.90;;;;;;7323439;32;20125;-62
2022/06/02 23:10:44;;;;;;;8.18;1.70;;;13.70;99.90;;;;;;7326125;32;20167;-61